Главная страница
METAR-TAF:

METAR-TAF

Аэропорты :

Джорджтаун, Остров Вознесения

широта: 07-58S, долгота: 014-24W, высота над уровнем моря: 86 м

METAR: отсутствует

Время: 11:42 (11:42 UTC)

Прогноз

Эта сводка был подготовлена 31 часа и 12 минут назад, в 04:30 UTC
Прогноз действительный с 15-го 06 UTC до 15-го 24 UTC
Ветер 13 Узел от восточно-юго-восточный
Видимость 10 км и более
небольшая облачность на высоте 2200 фута
Рассеянная облачность на высоте 4600 фута
Вероятность 30% :
временами
С 15-го 06 UTC до 15-го 10 UTC
Отдельные облака на высоте 1700 фута
небольшие ливневые дожди

TAF: FHAW 150430Z 1506/1524 12013KT 9999 FEW022 BKN046 PROB30 TEMPO 1506/1510 -SHRA SCT017

Метеонаблюдения и прогнозы для более 4000 аэропортов (сводки METAR и TAF).

Имеющиеся станции представлены на карте желтыми и красными точками.

Чтобы увидеть название станции, наведите на нее мышь.

Затем щелкните, чтобы увидеть метеонаблюдения и метеопрогнозы.

Управление картой: чтобы увеличить масштаб, щелкните зеленые кнопки с черным крестиком; чтобы уменьшить масштаб, щелкните зеленую кнопку с тире; для просмотра соседних карт щелкайте зеленые стрелки.


METAR-TAF: